sensor_id;sensor_type;location;lat;lon;timestamp;P1;durP1;ratioP1;P2;durP2;ratioP2
5650;SDS011;40241;52.684;9.758;2023-04-09T00:00:40;22.20;;;11.00;;
5650;SDS011;40241;52.684;9.758;2023-04-09T00:03:05;15.03;;;9.40;;
5650;SDS011;40241;52.684;9.758;2023-04-09T00:05:31;17.67;;;10.13;;
5650;SDS011;40241;52.684;9.758;2023-04-09T00:07:56;16.40;;;10.20;;
5650;SDS011;40241;52.684;9.758;2023-04-09T00:10:21;18.30;;;10.67;;
5650;SDS011;40241;52.684;9.758;2023-04-09T00:12:47;21.43;;;10.33;;
5650;SDS011;40241;52.684;9.758;2023-04-09T00:15:12;17.63;;;9.97;;
5650;SDS011;40241;52.684;9.758;2023-04-09T00:17:37;21.40;;;11.40;;
5650;SDS011;40241;52.684;9.758;2023-04-09T00:20:03;25.60;;;10.63;;
5650;SDS011;40241;52.684;9.758;2023-04-09T00:22:29;21.10;;;11.50;;
5650;SDS011;40241;52.684;9.758;2023-04-09T00:24:54;21.40;;;11.30;;
5650;SDS011;40241;52.684;9.758;2023-04-09T00:27:21;21.97;;;11.23;;
5650;SDS011;40241;52.684;9.758;2023-04-09T00:29:46;20.77;;;11.93;;
5650;SDS011;40241;52.684;9.758;2023-04-09T00:32:12;25.83;;;13.20;;
5650;SDS011;40241;52.684;9.758;2023-04-09T00:34:37;26.17;;;12.43;;
5650;SDS011;40241;52.684;9.758;2023-04-09T00:37:03;26.13;;;12.53;;
5650;SDS011;40241;52.684;9.758;2023-04-09T00:39:28;22.43;;;13.20;;
5650;SDS011;40241;52.684;9.758;2023-04-09T00:41:54;25.23;;;14.20;;
5650;SDS011;40241;52.684;9.758;2023-04-09T00:44:22;24.63;;;13.53;;
5650;SDS011;40241;52.684;9.758;2023-04-09T00:46:48;26.37;;;13.17;;
5650;SDS011;40241;52.684;9.758;2023-04-09T00:49:13;30.50;;;13.17;;
5650;SDS011;40241;52.684;9.758;2023-04-09T00:51:39;29.10;;;13.13;;
5650;SDS011;40241;52.684;9.758;2023-04-09T00:54:05;26.53;;;12.53;;
5650;SDS011;40241;52.684;9.758;2023-04-09T00:56:31;30.30;;;13.10;;
5650;SDS011;40241;52.684;9.758;2023-04-09T00:58:57;27.67;;;12.90;;
5650;SDS011;40241;52.684;9.758;2023-04-09T01:01:22;29.90;;;14.20;;
5650;SDS011;40241;52.684;9.758;2023-04-09T01:03:47;29.03;;;12.50;;
5650;SDS011;40241;52.684;9.758;2023-04-09T01:13:56;23.23;;;12.87;;
5650;SDS011;40241;52.684;9.758;2023-04-09T01:16:23;27.10;;;13.10;;
5650;SDS011;40241;52.684;9.758;2023-04-09T01:18:55;25.17;;;12.70;;
5650;SDS011;40241;52.684;9.758;2023-04-09T01:21:24;27.03;;;12.50;;
5650;SDS011;40241;52.684;9.758;2023-04-09T01:26:59;23.03;;;12.73;;
5650;SDS011;40241;52.684;9.758;2023-04-09T01:29:29;26.97;;;13.10;;
5650;SDS011;40241;52.684;9.758;2023-04-09T01:31:56;24.53;;;12.63;;
5650;SDS011;40241;52.684;9.758;2023-04-09T01:34:23;25.90;;;13.40;;
5650;SDS011;40241;52.684;9.758;2023-04-09T01:36:54;26.23;;;13.33;;
5650;SDS011;40241;52.684;9.758;2023-04-09T01:39:22;22.47;;;12.00;;
5650;SDS011;40241;52.684;9.758;2023-04-09T01:41:48;29.03;;;13.47;;
5650;SDS011;40241;52.684;9.758;2023-04-09T01:44:16;26.30;;;13.97;;
5650;SDS011;40241;52.684;9.758;2023-04-09T01:46:42;23.10;;;12.70;;
5650;SDS011;40241;52.684;9.758;2023-04-09T01:49:10;27.27;;;13.30;;
5650;SDS011;40241;52.684;9.758;2023-04-09T01:51:36;30.00;;;14.00;;
5650;SDS011;40241;52.684;9.758;2023-04-09T01:54:02;25.70;;;13.33;;
5650;SDS011;40241;52.684;9.758;2023-04-09T01:56:38;27.20;;;13.80;;
5650;SDS011;40241;52.684;9.758;2023-04-09T01:59:04;25.90;;;13.30;;
5650;SDS011;40241;52.684;9.758;2023-04-09T02:01:34;27.60;;;13.60;;
5650;SDS011;40241;52.684;9.758;2023-04-09T02:04:09;24.70;;;12.00;;
5650;SDS011;40241;52.684;9.758;2023-04-09T02:06:41;23.87;;;13.10;;
5650;SDS011;40241;52.684;9.758;2023-04-09T02:09:10;22.90;;;12.00;;
5650;SDS011;40241;52.684;9.758;2023-04-09T02:11:37;30.23;;;13.80;;
5650;SDS011;40241;52.684;9.758;2023-04-09T02:14:04;29.37;;;13.73;;
5650;SDS011;40241;52.684;9.758;2023-04-09T02:16:32;28.43;;;14.10;;
5650;SDS011;40241;52.684;9.758;2023-04-09T02:18:58;24.73;;;14.00;;
5650;SDS011;40241;52.684;9.758;2023-04-09T02:21:27;27.00;;;12.70;;
5650;SDS011;40241;52.684;9.758;2023-04-09T02:23:53;27.37;;;14.23;;
5650;SDS011;40241;52.684;9.758;2023-04-09T02:26:22;29.33;;;13.87;;
5650;SDS011;40241;52.684;9.758;2023-04-09T02:28:48;27.20;;;13.13;;
5650;SDS011;40241;52.684;9.758;2023-04-09T02:31:13;26.47;;;13.20;;
5650;SDS011;40241;52.684;9.758;2023-04-09T02:33:39;26.43;;;12.80;;
5650;SDS011;40241;52.684;9.758;2023-04-09T02:36:04;31.70;;;14.20;;
5650;SDS011;40241;52.684;9.758;2023-04-09T02:38:30;29.43;;;13.30;;
5650;SDS011;40241;52.684;9.758;2023-04-09T02:40:56;26.87;;;12.40;;
5650;SDS011;40241;52.684;9.758;2023-04-09T02:43:21;25.27;;;13.67;;
5650;SDS011;40241;52.684;9.758;2023-04-09T02:45:47;29.03;;;13.50;;
5650;SDS011;40241;52.684;9.758;2023-04-09T02:48:12;29.47;;;14.27;;
5650;SDS011;40241;52.684;9.758;2023-04-09T02:50:37;24.73;;;13.40;;
5650;SDS011;40241;52.684;9.758;2023-04-09T02:53:03;25.77;;;13.23;;
5650;SDS011;40241;52.684;9.758;2023-04-09T02:55:28;23.40;;;11.30;;
5650;SDS011;40241;52.684;9.758;2023-04-09T02:57:53;25.10;;;11.97;;
5650;SDS011;40241;52.684;9.758;2023-04-09T03:00:19;21.10;;;11.27;;
5650;SDS011;40241;52.684;9.758;2023-04-09T03:02:44;22.70;;;11.70;;
5650;SDS011;40241;52.684;9.758;2023-04-09T03:05:09;21.37;;;11.27;;
5650;SDS011;40241;52.684;9.758;2023-04-09T03:07:35;22.40;;;11.80;;
5650;SDS011;40241;52.684;9.758;2023-04-09T03:10:00;20.67;;;11.37;;
5650;SDS011;40241;52.684;9.758;2023-04-09T03:12:25;20.30;;;11.00;;
5650;SDS011;40241;52.684;9.758;2023-04-09T03:14:51;15.93;;;10.27;;
5650;SDS011;40241;52.684;9.758;2023-04-09T03:17:16;21.30;;;12.00;;
5650;SDS011;40241;52.684;9.758;2023-04-09T03:19:41;22.00;;;11.10;;
5650;SDS011;40241;52.684;9.758;2023-04-09T03:22:07;21.83;;;11.97;;
5650;SDS011;40241;52.684;9.758;2023-04-09T03:24:32;21.87;;;12.27;;
5650;SDS011;40241;52.684;9.758;2023-04-09T03:26:57;24.00;;;12.70;;
5650;SDS011;40241;52.684;9.758;2023-04-09T03:29:23;24.00;;;12.90;;
5650;SDS011;40241;52.684;9.758;2023-04-09T03:31:48;26.30;;;12.67;;
5650;SDS011;40241;52.684;9.758;2023-04-09T03:34:13;27.13;;;12.07;;
5650;SDS011;40241;52.684;9.758;2023-04-09T03:36:39;21.60;;;11.83;;
5650;SDS011;40241;52.684;9.758;2023-04-09T03:39:04;21.30;;;11.30;;
5650;SDS011;40241;52.684;9.758;2023-04-09T03:41:30;27.53;;;13.53;;
5650;SDS011;40241;52.684;9.758;2023-04-09T03:43:55;22.83;;;12.60;;
5650;SDS011;40241;52.684;9.758;2023-04-09T03:46:21;27.47;;;13.00;;
5650;SDS011;40241;52.684;9.758;2023-04-09T03:48:46;20.00;;;12.27;;
5650;SDS011;40241;52.684;9.758;2023-04-09T03:51:14;25.47;;;12.47;;
5650;SDS011;40241;52.684;9.758;2023-04-09T03:53:41;21.97;;;11.77;;
5650;SDS011;40241;52.684;9.758;2023-04-09T03:56:06;21.87;;;11.97;;
5650;SDS011;40241;52.684;9.758;2023-04-09T03:58:32;26.53;;;13.10;;
5650;SDS011;40241;52.684;9.758;2023-04-09T04:00:58;20.73;;;12.20;;
5650;SDS011;40241;52.684;9.758;2023-04-09T04:03:23;21.27;;;12.50;;
5650;SDS011;40241;52.684;9.758;2023-04-09T04:05:49;21.90;;;11.50;;
5650;SDS011;40241;52.684;9.758;2023-04-09T04:08:14;22.77;;;11.50;;
5650;SDS011;40241;52.684;9.758;2023-04-09T04:10:40;21.43;;;11.27;;
5650;SDS011;40241;52.684;9.758;2023-04-09T04:13:05;20.67;;;10.63;;
5650;SDS011;40241;52.684;9.758;2023-04-09T04:15:32;19.63;;;11.30;;
5650;SDS011;40241;52.684;9.758;2023-04-09T04:17:58;21.17;;;11.40;;
5650;SDS011;40241;52.684;9.758;2023-04-09T04:20:23;22.03;;;11.40;;
5650;SDS011;40241;52.684;9.758;2023-04-09T04:22:48;22.33;;;11.17;;
5650;SDS011;40241;52.684;9.758;2023-04-09T04:25:14;21.17;;;11.93;;
5650;SDS011;40241;52.684;9.758;2023-04-09T04:27:42;19.73;;;10.43;;
5650;SDS011;40241;52.684;9.758;2023-04-09T04:30:08;23.43;;;11.10;;
5650;SDS011;40241;52.684;9.758;2023-04-09T04:32:33;19.60;;;11.00;;
5650;SDS011;40241;52.684;9.758;2023-04-09T04:34:59;22.20;;;12.10;;
5650;SDS011;40241;52.684;9.758;2023-04-09T04:37:24;21.20;;;11.50;;
5650;SDS011;40241;52.684;9.758;2023-04-09T04:39:50;26.47;;;12.73;;
5650;SDS011;40241;52.684;9.758;2023-04-09T04:42:16;27.00;;;12.83;;
5650;SDS011;40241;52.684;9.758;2023-04-09T04:44:42;22.43;;;12.40;;
5650;SDS011;40241;52.684;9.758;2023-04-09T04:47:08;23.07;;;12.37;;
5650;SDS011;40241;52.684;9.758;2023-04-09T04:49:33;22.33;;;12.07;;
5650;SDS011;40241;52.684;9.758;2023-04-09T04:51:59;23.63;;;12.00;;
5650;SDS011;40241;52.684;9.758;2023-04-09T04:54:24;22.43;;;11.67;;
5650;SDS011;40241;52.684;9.758;2023-04-09T04:56:50;19.43;;;11.33;;
5650;SDS011;40241;52.684;9.758;2023-04-09T04:59:15;23.70;;;12.67;;
5650;SDS011;40241;52.684;9.758;2023-04-09T05:01:40;20.17;;;10.83;;
5650;SDS011;40241;52.684;9.758;2023-04-09T05:04:05;21.73;;;11.43;;
5650;SDS011;40241;52.684;9.758;2023-04-09T05:06:31;19.07;;;11.50;;
5650;SDS011;40241;52.684;9.758;2023-04-09T05:08:57;18.83;;;11.67;;
5650;SDS011;40241;52.684;9.758;2023-04-09T05:11:23;21.17;;;11.27;;
5650;SDS011;40241;52.684;9.758;2023-04-09T05:13:49;18.60;;;11.07;;
5650;SDS011;40241;52.684;9.758;2023-04-09T05:16:15;20.33;;;12.20;;
5650;SDS011;40241;52.684;9.758;2023-04-09T05:18:42;17.30;;;10.63;;
5650;SDS011;40241;52.684;9.758;2023-04-09T05:21:07;17.23;;;11.00;;
5650;SDS011;40241;52.684;9.758;2023-04-09T05:23:33;17.67;;;10.80;;
5650;SDS011;40241;52.684;9.758;2023-04-09T05:25:58;20.47;;;11.30;;
5650;SDS011;40241;52.684;9.758;2023-04-09T05:28:23;17.43;;;10.50;;
5650;SDS011;40241;52.684;9.758;2023-04-09T05:30:48;19.70;;;12.00;;
5650;SDS011;40241;52.684;9.758;2023-04-09T05:33:14;16.47;;;10.03;;
5650;SDS011;40241;52.684;9.758;2023-04-09T05:35:40;18.40;;;10.03;;
5650;SDS011;40241;52.684;9.758;2023-04-09T05:38:05;19.20;;;11.20;;
5650;SDS011;40241;52.684;9.758;2023-04-09T05:40:30;16.77;;;10.70;;
5650;SDS011;40241;52.684;9.758;2023-04-09T05:42:56;17.87;;;10.40;;
5650;SDS011;40241;52.684;9.758;2023-04-09T05:45:21;19.57;;;12.10;;
5650;SDS011;40241;52.684;9.758;2023-04-09T05:47:46;17.80;;;10.20;;
5650;SDS011;40241;52.684;9.758;2023-04-09T05:50:12;16.57;;;9.90;;
5650;SDS011;40241;52.684;9.758;2023-04-09T05:52:37;18.63;;;10.50;;
5650;SDS011;40241;52.684;9.758;2023-04-09T05:55:03;16.73;;;10.57;;
5650;SDS011;40241;52.684;9.758;2023-04-09T05:57:29;16.60;;;10.60;;
5650;SDS011;40241;52.684;9.758;2023-04-09T05:59:55;17.27;;;9.70;;
5650;SDS011;40241;52.684;9.758;2023-04-09T06:02:21;19.23;;;10.90;;
5650;SDS011;40241;52.684;9.758;2023-04-09T06:04:46;14.67;;;9.83;;
5650;SDS011;40241;52.684;9.758;2023-04-09T06:07:11;23.10;;;11.53;;
5650;SDS011;40241;52.684;9.758;2023-04-09T06:09:37;18.10;;;10.87;;
5650;SDS011;40241;52.684;9.758;2023-04-09T06:12:02;19.57;;;11.40;;
5650;SDS011;40241;52.684;9.758;2023-04-09T06:14:28;22.33;;;11.90;;
5650;SDS011;40241;52.684;9.758;2023-04-09T06:16:53;20.43;;;11.27;;
5650;SDS011;40241;52.684;9.758;2023-04-09T06:19:19;19.60;;;10.50;;
5650;SDS011;40241;52.684;9.758;2023-04-09T06:21:44;19.30;;;10.53;;
5650;SDS011;40241;52.684;9.758;2023-04-09T06:24:10;17.50;;;10.47;;
5650;SDS011;40241;52.684;9.758;2023-04-09T06:26:35;15.73;;;10.33;;
5650;SDS011;40241;52.684;9.758;2023-04-09T06:29:00;18.20;;;11.03;;
5650;SDS011;40241;52.684;9.758;2023-04-09T06:31:26;15.97;;;10.23;;
5650;SDS011;40241;52.684;9.758;2023-04-09T06:33:51;20.70;;;12.40;;
5650;SDS011;40241;52.684;9.758;2023-04-09T06:36:16;17.87;;;11.33;;
5650;SDS011;40241;52.684;9.758;2023-04-09T06:38:42;17.50;;;10.77;;
5650;SDS011;40241;52.684;9.758;2023-04-09T06:41:07;18.10;;;11.50;;
5650;SDS011;40241;52.684;9.758;2023-04-09T06:43:33;15.83;;;10.50;;
5650;SDS011;40241;52.684;9.758;2023-04-09T06:45:58;17.37;;;10.57;;
5650;SDS011;40241;52.684;9.758;2023-04-09T06:48:23;14.80;;;10.30;;
5650;SDS011;40241;52.684;9.758;2023-04-09T06:50:49;15.00;;;10.47;;
5650;SDS011;40241;52.684;9.758;2023-04-09T06:53:14;15.97;;;10.43;;
5650;SDS011;40241;52.684;9.758;2023-04-09T06:55:40;18.60;;;11.27;;
5650;SDS011;40241;52.684;9.758;2023-04-09T06:58:06;18.33;;;10.83;;
5650;SDS011;40241;52.684;9.758;2023-04-09T07:00:31;17.87;;;9.47;;
5650;SDS011;40241;52.684;9.758;2023-04-09T07:02:56;13.57;;;9.13;;
5650;SDS011;40241;52.684;9.758;2023-04-09T07:05:22;13.50;;;9.47;;
5650;SDS011;40241;52.684;9.758;2023-04-09T07:07:48;16.80;;;9.87;;
5650;SDS011;40241;52.684;9.758;2023-04-09T07:10:13;13.80;;;9.90;;
5650;SDS011;40241;52.684;9.758;2023-04-09T07:12:38;13.50;;;9.43;;
5650;SDS011;40241;52.684;9.758;2023-04-09T07:15:05;11.60;;;8.23;;
5650;SDS011;40241;52.684;9.758;2023-04-09T07:17:31;11.60;;;8.63;;
5650;SDS011;40241;52.684;9.758;2023-04-09T07:19:57;11.60;;;7.93;;
5650;SDS011;40241;52.684;9.758;2023-04-09T07:22:23;11.27;;;8.97;;
5650;SDS011;40241;52.684;9.758;2023-04-09T07:24:50;12.43;;;9.00;;
5650;SDS011;40241;52.684;9.758;2023-04-09T07:27:19;9.73;;;7.57;;
5650;SDS011;40241;52.684;9.758;2023-04-09T07:29:48;10.90;;;7.70;;
5650;SDS011;40241;52.684;9.758;2023-04-09T07:32:14;8.90;;;8.00;;
5650;SDS011;40241;52.684;9.758;2023-04-09T07:34:40;10.03;;;7.67;;
5650;SDS011;40241;52.684;9.758;2023-04-09T07:37:06;9.13;;;7.23;;
5650;SDS011;40241;52.684;9.758;2023-04-09T07:39:31;9.67;;;7.37;;
5650;SDS011;40241;52.684;9.758;2023-04-09T07:41:56;9.37;;;7.37;;
5650;SDS011;40241;52.684;9.758;2023-04-09T07:44:22;12.73;;;8.00;;
5650;SDS011;40241;52.684;9.758;2023-04-09T07:46:48;11.30;;;8.07;;
5650;SDS011;40241;52.684;9.758;2023-04-09T07:49:13;10.90;;;7.77;;
5650;SDS011;40241;52.684;9.758;2023-04-09T07:51:40;11.37;;;7.50;;
5650;SDS011;40241;52.684;9.758;2023-04-09T07:54:05;10.80;;;7.40;;
5650;SDS011;40241;52.684;9.758;2023-04-09T07:56:30;16.30;;;8.27;;
5650;SDS011;40241;52.684;9.758;2023-04-09T07:58:56;15.70;;;10.20;;
5650;SDS011;40241;52.684;9.758;2023-04-09T08:01:21;14.07;;;8.43;;
5650;SDS011;40241;52.684;9.758;2023-04-09T08:03:48;13.40;;;9.23;;
5650;SDS011;40241;52.684;9.758;2023-04-09T08:06:14;14.17;;;9.23;;
5650;SDS011;40241;52.684;9.758;2023-04-09T08:08:40;12.13;;;8.80;;
5650;SDS011;40241;52.684;9.758;2023-04-09T08:11:05;15.80;;;9.73;;
5650;SDS011;40241;52.684;9.758;2023-04-09T08:13:31;12.60;;;8.90;;
5650;SDS011;40241;52.684;9.758;2023-04-09T08:15:58;13.67;;;9.20;;
5650;SDS011;40241;52.684;9.758;2023-04-09T08:18:24;13.60;;;9.60;;
5650;SDS011;40241;52.684;9.758;2023-04-09T08:20:50;11.40;;;8.33;;
5650;SDS011;40241;52.684;9.758;2023-04-09T08:23:15;14.93;;;8.63;;
5650;SDS011;40241;52.684;9.758;2023-04-09T08:25:40;13.97;;;9.60;;
5650;SDS011;40241;52.684;9.758;2023-04-09T08:28:05;14.47;;;9.10;;
5650;SDS011;40241;52.684;9.758;2023-04-09T08:30:32;12.73;;;8.90;;
5650;SDS011;40241;52.684;9.758;2023-04-09T08:32:58;13.03;;;9.40;;
5650;SDS011;40241;52.684;9.758;2023-04-09T08:35:25;12.60;;;9.80;;
5650;SDS011;40241;52.684;9.758;2023-04-09T08:37:50;14.80;;;9.13;;
5650;SDS011;40241;52.684;9.758;2023-04-09T08:40:15;14.40;;;8.60;;
5650;SDS011;40241;52.684;9.758;2023-04-09T08:42:42;15.33;;;10.00;;
5650;SDS011;40241;52.684;9.758;2023-04-09T08:45:10;14.70;;;9.73;;
5650;SDS011;40241;52.684;9.758;2023-04-09T08:47:36;15.37;;;10.27;;
5650;SDS011;40241;52.684;9.758;2023-04-09T08:50:03;15.07;;;9.87;;
5650;SDS011;40241;52.684;9.758;2023-04-09T08:52:30;10.70;;;8.60;;
5650;SDS011;40241;52.684;9.758;2023-04-09T08:54:57;17.10;;;8.97;;
5650;SDS011;40241;52.684;9.758;2023-04-09T08:57:22;11.63;;;8.90;;
5650;SDS011;40241;52.684;9.758;2023-04-09T08:59:48;13.67;;;8.90;;
5650;SDS011;40241;52.684;9.758;2023-04-09T09:02:13;13.00;;;9.30;;
5650;SDS011;40241;52.684;9.758;2023-04-09T09:04:45;14.50;;;9.67;;
5650;SDS011;40241;52.684;9.758;2023-04-09T09:07:12;13.53;;;8.63;;
5650;SDS011;40241;52.684;9.758;2023-04-09T09:12:32;14.00;;;9.43;;
5650;SDS011;40241;52.684;9.758;2023-04-09T09:14:58;12.97;;;9.37;;
5650;SDS011;40241;52.684;9.758;2023-04-09T09:17:24;14.40;;;10.73;;
5650;SDS011;40241;52.684;9.758;2023-04-09T09:19:50;15.17;;;9.83;;
5650;SDS011;40241;52.684;9.758;2023-04-09T09:22:15;15.70;;;10.37;;
5650;SDS011;40241;52.684;9.758;2023-04-09T09:30:00;14.40;;;8.73;;
5650;SDS011;40241;52.684;9.758;2023-04-09T09:32:26;12.33;;;9.50;;
5650;SDS011;40241;52.684;9.758;2023-04-09T09:35:01;12.83;;;9.43;;
5650;SDS011;40241;52.684;9.758;2023-04-09T09:37:29;12.50;;;8.80;;
5650;SDS011;40241;52.684;9.758;2023-04-09T09:39:55;16.50;;;11.43;;
5650;SDS011;40241;52.684;9.758;2023-04-09T09:42:20;16.20;;;10.33;;
5650;SDS011;40241;52.684;9.758;2023-04-09T09:44:46;13.23;;;9.83;;
5650;SDS011;40241;52.684;9.758;2023-04-09T09:47:12;11.60;;;9.10;;
5650;SDS011;40241;52.684;9.758;2023-04-09T09:49:38;11.60;;;9.00;;
5650;SDS011;40241;52.684;9.758;2023-04-09T09:52:08;13.80;;;9.60;;
5650;SDS011;40241;52.684;9.758;2023-04-09T09:54:39;14.37;;;10.70;;
5650;SDS011;40241;52.684;9.758;2023-04-09T09:57:09;10.30;;;8.37;;
5650;SDS011;40241;52.684;9.758;2023-04-09T09:59:37;14.83;;;9.17;;
5650;SDS011;40241;52.684;9.758;2023-04-09T10:02:10;12.90;;;8.70;;
5650;SDS011;40241;52.684;9.758;2023-04-09T10:04:42;15.73;;;10.57;;
5650;SDS011;40241;52.684;9.758;2023-04-09T10:07:08;14.43;;;10.50;;
5650;SDS011;40241;52.684;9.758;2023-04-09T10:09:34;11.77;;;9.07;;
5650;SDS011;40241;52.684;9.758;2023-04-09T10:12:05;13.60;;;10.17;;
5650;SDS011;40241;52.684;9.758;2023-04-09T10:14:31;16.43;;;10.50;;
5650;SDS011;40241;52.684;9.758;2023-04-09T10:16:58;15.30;;;10.47;;
5650;SDS011;40241;52.684;9.758;2023-04-09T10:19:23;14.53;;;10.43;;
5650;SDS011;40241;52.684;9.758;2023-04-09T10:21:50;16.03;;;11.40;;
5650;SDS011;40241;52.684;9.758;2023-04-09T10:24:21;12.93;;;9.63;;
5650;SDS011;40241;52.684;9.758;2023-04-09T10:26:47;12.87;;;10.00;;
5650;SDS011;40241;52.684;9.758;2023-04-09T10:29:13;11.30;;;9.47;;
5650;SDS011;40241;52.684;9.758;2023-04-09T10:34:22;16.13;;;10.10;;
5650;SDS011;40241;52.684;9.758;2023-04-09T10:36:51;14.40;;;10.30;;
5650;SDS011;40241;52.684;9.758;2023-04-09T10:39:19;12.70;;;10.40;;
5650;SDS011;40241;52.684;9.758;2023-04-09T10:41:45;12.00;;;9.43;;
5650;SDS011;40241;52.684;9.758;2023-04-09T10:44:26;16.13;;;9.27;;
5650;SDS011;40241;52.684;9.758;2023-04-09T10:46:55;11.63;;;9.07;;
5650;SDS011;40241;52.684;9.758;2023-04-09T10:49:21;13.60;;;9.60;;
5650;SDS011;40241;52.684;9.758;2023-04-09T10:52:06;14.13;;;10.20;;
5650;SDS011;40241;52.684;9.758;2023-04-09T10:59:34;13.97;;;10.30;;
5650;SDS011;40241;52.684;9.758;2023-04-09T11:02:08;15.07;;;9.77;;
5650;SDS011;40241;52.684;9.758;2023-04-09T11:04:51;12.73;;;10.23;;
5650;SDS011;40241;52.684;9.758;2023-04-09T11:07:21;14.23;;;10.63;;
5650;SDS011;40241;52.684;9.758;2023-04-09T11:09:48;13.20;;;10.23;;
5650;SDS011;40241;52.684;9.758;2023-04-09T11:12:13;15.57;;;11.03;;
5650;SDS011;40241;52.684;9.758;2023-04-09T11:14:38;14.70;;;10.03;;
5650;SDS011;40241;52.684;9.758;2023-04-09T11:17:04;15.50;;;10.60;;
5650;SDS011;40241;52.684;9.758;2023-04-09T11:19:31;11.60;;;9.30;;
5650;SDS011;40241;52.684;9.758;2023-04-09T11:21:58;17.97;;;11.07;;
5650;SDS011;40241;52.684;9.758;2023-04-09T11:24:23;13.60;;;10.33;;
5650;SDS011;40241;52.684;9.758;2023-04-09T11:26:48;14.93;;;11.03;;
5650;SDS011;40241;52.684;9.758;2023-04-09T11:29:14;16.37;;;10.67;;
5650;SDS011;40241;52.684;9.758;2023-04-09T11:31:42;15.47;;;11.20;;
5650;SDS011;40241;52.684;9.758;2023-04-09T11:34:09;14.57;;;11.20;;
5650;SDS011;40241;52.684;9.758;2023-04-09T11:36:36;12.93;;;10.77;;
5650;SDS011;40241;52.684;9.758;2023-04-09T11:39:03;14.53;;;11.53;;
5650;SDS011;40241;52.684;9.758;2023-04-09T11:41:36;13.60;;;10.77;;
5650;SDS011;40241;52.684;9.758;2023-04-09T11:44:03;13.40;;;10.23;;
5650;SDS011;40241;52.684;9.758;2023-04-09T11:46:34;14.77;;;12.07;;
5650;SDS011;40241;52.684;9.758;2023-04-09T11:49:00;12.33;;;10.40;;
5650;SDS011;40241;52.684;9.758;2023-04-09T11:51:26;12.83;;;10.10;;
5650;SDS011;40241;52.684;9.758;2023-04-09T11:53:52;15.50;;;11.00;;
5650;SDS011;40241;52.684;9.758;2023-04-09T11:56:18;14.30;;;11.13;;
5650;SDS011;40241;52.684;9.758;2023-04-09T11:58:44;13.13;;;11.10;;
5650;SDS011;40241;52.684;9.758;2023-04-09T12:01:11;12.90;;;9.83;;
5650;SDS011;40241;52.684;9.758;2023-04-09T12:03:37;14.17;;;10.57;;
5650;SDS011;40241;52.684;9.758;2023-04-09T12:06:02;14.27;;;11.33;;
5650;SDS011;40241;52.684;9.758;2023-04-09T12:08:29;13.33;;;10.80;;
5650;SDS011;40241;52.684;9.758;2023-04-09T12:10:55;13.50;;;11.03;;
5650;SDS011;40241;52.684;9.758;2023-04-09T12:13:20;14.37;;;11.30;;
5650;SDS011;40241;52.684;9.758;2023-04-09T12:15:47;12.53;;;10.30;;
5650;SDS011;40241;52.684;9.758;2023-04-09T12:18:13;14.27;;;11.60;;
5650;SDS011;40241;52.684;9.758;2023-04-09T12:20:39;15.70;;;12.00;;
5650;SDS011;40241;52.684;9.758;2023-04-09T12:23:07;14.10;;;11.87;;
5650;SDS011;40241;52.684;9.758;2023-04-09T12:25:37;15.73;;;12.33;;
5650;SDS011;40241;52.684;9.758;2023-04-09T12:28:04;16.77;;;13.60;;
5650;SDS011;40241;52.684;9.758;2023-04-09T12:30:31;15.33;;;12.33;;
5650;SDS011;40241;52.684;9.758;2023-04-09T12:32:57;17.37;;;14.00;;
5650;SDS011;40241;52.684;9.758;2023-04-09T12:35:23;17.33;;;13.43;;
5650;SDS011;40241;52.684;9.758;2023-04-09T12:37:48;17.40;;;13.10;;
5650;SDS011;40241;52.684;9.758;2023-04-09T12:40:14;16.10;;;12.20;;
5650;SDS011;40241;52.684;9.758;2023-04-09T12:42:40;16.87;;;12.50;;
5650;SDS011;40241;52.684;9.758;2023-04-09T12:45:07;15.40;;;11.60;;
5650;SDS011;40241;52.684;9.758;2023-04-09T12:47:34;16.67;;;13.57;;
5650;SDS011;40241;52.684;9.758;2023-04-09T12:49:59;17.83;;;13.40;;
5650;SDS011;40241;52.684;9.758;2023-04-09T12:52:25;16.10;;;13.07;;
5650;SDS011;40241;52.684;9.758;2023-04-09T12:54:50;18.10;;;13.10;;
5650;SDS011;40241;52.684;9.758;2023-04-09T12:57:16;14.63;;;11.73;;
5650;SDS011;40241;52.684;9.758;2023-04-09T12:59:41;16.70;;;12.70;;
5650;SDS011;40241;52.684;9.758;2023-04-09T13:02:07;16.57;;;12.13;;
5650;SDS011;40241;52.684;9.758;2023-04-09T13:04:32;15.10;;;11.20;;
5650;SDS011;40241;52.684;9.758;2023-04-09T13:06:57;16.10;;;11.30;;
5650;SDS011;40241;52.684;9.758;2023-04-09T13:09:23;14.00;;;11.43;;
5650;SDS011;40241;52.684;9.758;2023-04-09T13:11:49;17.77;;;12.53;;
5650;SDS011;40241;52.684;9.758;2023-04-09T13:14:14;15.00;;;11.73;;
5650;SDS011;40241;52.684;9.758;2023-04-09T13:16:40;15.57;;;12.80;;
5650;SDS011;40241;52.684;9.758;2023-04-09T13:19:06;13.70;;;11.80;;
5650;SDS011;40241;52.684;9.758;2023-04-09T13:21:32;14.37;;;11.70;;
5650;SDS011;40241;52.684;9.758;2023-04-09T13:23:58;14.10;;;12.03;;
5650;SDS011;40241;52.684;9.758;2023-04-09T13:26:23;16.53;;;12.47;;
5650;SDS011;40241;52.684;9.758;2023-04-09T13:28:49;13.23;;;10.80;;
5650;SDS011;40241;52.684;9.758;2023-04-09T13:31:15;17.60;;;12.17;;
5650;SDS011;40241;52.684;9.758;2023-04-09T13:33:41;15.17;;;12.20;;
5650;SDS011;40241;52.684;9.758;2023-04-09T13:36:06;13.87;;;11.90;;
5650;SDS011;40241;52.684;9.758;2023-04-09T13:38:32;15.60;;;12.00;;
5650;SDS011;40241;52.684;9.758;2023-04-09T13:40:57;16.20;;;13.30;;
5650;SDS011;40241;52.684;9.758;2023-04-09T13:43:22;15.83;;;12.60;;
5650;SDS011;40241;52.684;9.758;2023-04-09T13:45:52;14.80;;;12.00;;
5650;SDS011;40241;52.684;9.758;2023-04-09T13:48:21;15.43;;;11.97;;
5650;SDS011;40241;52.684;9.758;2023-04-09T13:50:46;13.73;;;11.70;;
5650;SDS011;40241;52.684;9.758;2023-04-09T13:53:12;17.20;;;12.30;;
5650;SDS011;40241;52.684;9.758;2023-04-09T13:55:38;16.43;;;12.40;;
5650;SDS011;40241;52.684;9.758;2023-04-09T13:58:03;14.90;;;12.00;;
5650;SDS011;40241;52.684;9.758;2023-04-09T14:00:29;15.30;;;12.53;;
5650;SDS011;40241;52.684;9.758;2023-04-09T14:02:55;14.63;;;12.23;;
5650;SDS011;40241;52.684;9.758;2023-04-09T14:05:21;15.07;;;11.80;;
5650;SDS011;40241;52.684;9.758;2023-04-09T14:07:46;16.47;;;12.77;;
5650;SDS011;40241;52.684;9.758;2023-04-09T14:10:11;13.90;;;10.80;;
5650;SDS011;40241;52.684;9.758;2023-04-09T14:12:37;15.77;;;12.40;;
5650;SDS011;40241;52.684;9.758;2023-04-09T14:15:02;13.20;;;11.00;;
5650;SDS011;40241;52.684;9.758;2023-04-09T14:17:28;13.60;;;10.90;;
5650;SDS011;40241;52.684;9.758;2023-04-09T14:19:53;14.90;;;11.43;;
5650;SDS011;40241;52.684;9.758;2023-04-09T14:22:18;15.77;;;12.30;;
5650;SDS011;40241;52.684;9.758;2023-04-09T14:24:44;14.23;;;11.03;;
5650;SDS011;40241;52.684;9.758;2023-04-09T14:27:09;16.80;;;12.97;;
5650;SDS011;40241;52.684;9.758;2023-04-09T14:29:34;16.10;;;12.33;;
5650;SDS011;40241;52.684;9.758;2023-04-09T14:32:00;14.47;;;11.40;;
5650;SDS011;40241;52.684;9.758;2023-04-09T14:34:26;17.13;;;13.13;;
5650;SDS011;40241;52.684;9.758;2023-04-09T14:36:53;13.63;;;11.37;;
5650;SDS011;40241;52.684;9.758;2023-04-09T14:39:18;14.83;;;12.07;;
5650;SDS011;40241;52.684;9.758;2023-04-09T14:41:43;15.97;;;12.33;;
5650;SDS011;40241;52.684;9.758;2023-04-09T14:44:09;14.83;;;12.07;;
5650;SDS011;40241;52.684;9.758;2023-04-09T14:46:34;15.33;;;11.73;;
5650;SDS011;40241;52.684;9.758;2023-04-09T14:49:00;18.80;;;13.17;;
5650;SDS011;40241;52.684;9.758;2023-04-09T14:51:26;16.00;;;11.90;;
5650;SDS011;40241;52.684;9.758;2023-04-09T14:53:54;13.90;;;10.60;;
5650;SDS011;40241;52.684;9.758;2023-04-09T14:56:19;17.80;;;11.53;;
5650;SDS011;40241;52.684;9.758;2023-04-09T14:58:45;14.50;;;11.20;;